sensor_id;sensor_type;location;lat;lon;timestamp;P1;durP1;ratioP1;P2;durP2;ratioP2
75234;SDS011;63817;51.228;-1.472;2023-06-14T00:01:37;11.13;;;6.85;;
75234;SDS011;63817;51.228;-1.472;2023-06-14T00:04:03;10.38;;;7.15;;
75234;SDS011;63817;51.228;-1.472;2023-06-14T00:06:30;8.77;;;6.35;;
75234;SDS011;63817;51.228;-1.472;2023-06-14T00:08:55;10.85;;;6.85;;
75234;SDS011;63817;51.228;-1.472;2023-06-14T00:11:21;11.27;;;6.72;;
75234;SDS011;63817;51.228;-1.472;2023-06-14T00:13:46;13.15;;;6.50;;
75234;SDS011;63817;51.228;-1.472;2023-06-14T00:16:12;11.25;;;6.97;;
75234;SDS011;63817;51.228;-1.472;2023-06-14T00:18:37;13.43;;;6.32;;
75234;SDS011;63817;51.228;-1.472;2023-06-14T00:21:03;13.77;;;6.95;;
75234;SDS011;63817;51.228;-1.472;2023-06-14T00:23:29;12.68;;;6.28;;
75234;SDS011;63817;51.228;-1.472;2023-06-14T00:25:54;10.80;;;6.82;;
75234;SDS011;63817;51.228;-1.472;2023-06-14T00:28:20;12.93;;;6.28;;
75234;SDS011;63817;51.228;-1.472;2023-06-14T00:30:45;13.48;;;6.97;;
75234;SDS011;63817;51.228;-1.472;2023-06-14T00:33:11;13.50;;;7.50;;
75234;SDS011;63817;51.228;-1.472;2023-06-14T00:35:37;11.00;;;7.03;;
75234;SDS011;63817;51.228;-1.472;2023-06-14T00:38:02;9.00;;;6.00;;
75234;SDS011;63817;51.228;-1.472;2023-06-14T00:40:28;14.20;;;6.28;;
75234;SDS011;63817;51.228;-1.472;2023-06-14T00:42:53;9.52;;;5.90;;
75234;SDS011;63817;51.228;-1.472;2023-06-14T00:45:19;18.95;;;6.28;;
75234;SDS011;63817;51.228;-1.472;2023-06-14T00:47:44;11.98;;;6.53;;
75234;SDS011;63817;51.228;-1.472;2023-06-14T00:50:10;13.05;;;5.90;;
75234;SDS011;63817;51.228;-1.472;2023-06-14T00:52:36;11.45;;;6.13;;
75234;SDS011;63817;51.228;-1.472;2023-06-14T00:55:02;14.05;;;6.15;;
75234;SDS011;63817;51.228;-1.472;2023-06-14T00:57:28;7.22;;;5.10;;
75234;SDS011;63817;51.228;-1.472;2023-06-14T00:59:55;13.10;;;6.57;;
75234;SDS011;63817;51.228;-1.472;2023-06-14T01:02:20;12.88;;;6.13;;
75234;SDS011;63817;51.228;-1.472;2023-06-14T01:04:47;9.95;;;6.05;;
75234;SDS011;63817;51.228;-1.472;2023-06-14T01:10:09;12.48;;;5.80;;
75234;SDS011;63817;51.228;-1.472;2023-06-14T01:12:48;10.20;;;5.68;;
75234;SDS011;63817;51.228;-1.472;2023-06-14T01:15:18;13.27;;;5.97;;
75234;SDS011;63817;51.228;-1.472;2023-06-14T01:17:45;10.88;;;5.00;;
75234;SDS011;63817;51.228;-1.472;2023-06-14T01:20:11;10.38;;;5.38;;
75234;SDS011;63817;51.228;-1.472;2023-06-14T01:22:50;9.02;;;5.35;;
75234;SDS011;63817;51.228;-1.472;2023-06-14T01:25:16;12.48;;;5.80;;
75234;SDS011;63817;51.228;-1.472;2023-06-14T01:27:46;11.68;;;6.00;;
75234;SDS011;63817;51.228;-1.472;2023-06-14T01:30:13;9.60;;;5.25;;
75234;SDS011;63817;51.228;-1.472;2023-06-14T01:32:39;10.95;;;5.88;;
75234;SDS011;63817;51.228;-1.472;2023-06-14T01:35:05;7.97;;;5.18;;
75234;SDS011;63817;51.228;-1.472;2023-06-14T01:37:31;12.88;;;5.72;;
75234;SDS011;63817;51.228;-1.472;2023-06-14T01:39:56;11.13;;;5.10;;
75234;SDS011;63817;51.228;-1.472;2023-06-14T01:42:23;12.85;;;5.05;;
75234;SDS011;63817;51.228;-1.472;2023-06-14T01:44:49;12.57;;;5.68;;
75234;SDS011;63817;51.228;-1.472;2023-06-14T01:47:16;13.30;;;5.60;;
75234;SDS011;63817;51.228;-1.472;2023-06-14T01:49:42;10.82;;;5.13;;
75234;SDS011;63817;51.228;-1.472;2023-06-14T01:52:07;10.73;;;4.78;;
75234;SDS011;63817;51.228;-1.472;2023-06-14T01:54:34;17.20;;;5.20;;
75234;SDS011;63817;51.228;-1.472;2023-06-14T01:57:02;7.82;;;5.00;;
75234;SDS011;63817;51.228;-1.472;2023-06-14T01:59:28;8.82;;;5.55;;
75234;SDS011;63817;51.228;-1.472;2023-06-14T02:01:53;11.40;;;5.95;;
75234;SDS011;63817;51.228;-1.472;2023-06-14T02:04:19;9.80;;;5.47;;
75234;SDS011;63817;51.228;-1.472;2023-06-14T02:06:44;9.80;;;6.32;;
75234;SDS011;63817;51.228;-1.472;2023-06-14T02:09:10;13.73;;;6.18;;
75234;SDS011;63817;51.228;-1.472;2023-06-14T02:11:35;14.98;;;6.70;;
75234;SDS011;63817;51.228;-1.472;2023-06-14T02:14:00;7.85;;;5.20;;
75234;SDS011;63817;51.228;-1.472;2023-06-14T02:16:26;9.85;;;5.22;;
75234;SDS011;63817;51.228;-1.472;2023-06-14T02:18:53;11.40;;;6.38;;
75234;SDS011;63817;51.228;-1.472;2023-06-14T02:21:18;10.15;;;6.43;;
75234;SDS011;63817;51.228;-1.472;2023-06-14T02:23:44;10.05;;;6.32;;
75234;SDS011;63817;51.228;-1.472;2023-06-14T02:26:10;12.60;;;6.25;;
75234;SDS011;63817;51.228;-1.472;2023-06-14T02:28:35;8.75;;;5.68;;
75234;SDS011;63817;51.228;-1.472;2023-06-14T02:31:00;9.20;;;5.90;;
75234;SDS011;63817;51.228;-1.472;2023-06-14T02:33:26;12.57;;;6.10;;
75234;SDS011;63817;51.228;-1.472;2023-06-14T02:35:51;11.48;;;5.85;;
75234;SDS011;63817;51.228;-1.472;2023-06-14T02:38:17;14.65;;;6.38;;
75234;SDS011;63817;51.228;-1.472;2023-06-14T02:40:43;13.27;;;6.78;;
75234;SDS011;63817;51.228;-1.472;2023-06-14T02:43:08;11.20;;;5.70;;
75234;SDS011;63817;51.228;-1.472;2023-06-14T02:45:34;10.25;;;5.95;;
75234;SDS011;63817;51.228;-1.472;2023-06-14T02:47:59;9.88;;;5.18;;
75234;SDS011;63817;51.228;-1.472;2023-06-14T02:50:25;8.77;;;5.30;;
75234;SDS011;63817;51.228;-1.472;2023-06-14T02:52:51;16.02;;;5.03;;
75234;SDS011;63817;51.228;-1.472;2023-06-14T02:55:17;8.85;;;4.97;;
75234;SDS011;63817;51.228;-1.472;2023-06-14T02:57:43;10.40;;;4.15;;
75234;SDS011;63817;51.228;-1.472;2023-06-14T03:00:08;8.77;;;4.70;;
75234;SDS011;63817;51.228;-1.472;2023-06-14T03:02:38;12.30;;;5.28;;
75234;SDS011;63817;51.228;-1.472;2023-06-14T03:05:03;12.50;;;4.28;;
75234;SDS011;63817;51.228;-1.472;2023-06-14T03:07:31;10.30;;;4.63;;
75234;SDS011;63817;51.228;-1.472;2023-06-14T03:09:57;13.27;;;4.97;;
75234;SDS011;63817;51.228;-1.472;2023-06-14T03:12:23;12.45;;;4.78;;
75234;SDS011;63817;51.228;-1.472;2023-06-14T03:14:48;7.10;;;4.57;;
75234;SDS011;63817;51.228;-1.472;2023-06-14T03:17:15;12.23;;;4.85;;
75234;SDS011;63817;51.228;-1.472;2023-06-14T03:19:42;11.43;;;4.65;;
75234;SDS011;63817;51.228;-1.472;2023-06-14T03:22:08;7.60;;;4.20;;
75234;SDS011;63817;51.228;-1.472;2023-06-14T03:24:33;14.25;;;4.13;;
75234;SDS011;63817;51.228;-1.472;2023-06-14T03:27:01;8.18;;;4.10;;
75234;SDS011;63817;51.228;-1.472;2023-06-14T03:29:27;9.88;;;4.13;;
75234;SDS011;63817;51.228;-1.472;2023-06-14T03:32:00;14.88;;;4.50;;
75234;SDS011;63817;51.228;-1.472;2023-06-14T03:34:26;14.30;;;4.25;;
75234;SDS011;63817;51.228;-1.472;2023-06-14T03:36:52;6.82;;;3.70;;
75234;SDS011;63817;51.228;-1.472;2023-06-14T03:39:18;7.93;;;3.50;;
75234;SDS011;63817;51.228;-1.472;2023-06-14T03:41:43;9.30;;;4.30;;
75234;SDS011;63817;51.228;-1.472;2023-06-14T03:44:09;9.82;;;4.00;;
75234;SDS011;63817;51.228;-1.472;2023-06-14T03:46:34;10.68;;;4.10;;
75234;SDS011;63817;51.228;-1.472;2023-06-14T03:49:00;12.73;;;3.70;;
75234;SDS011;63817;51.228;-1.472;2023-06-14T03:51:27;10.88;;;4.28;;
75234;SDS011;63817;51.228;-1.472;2023-06-14T03:53:53;9.63;;;3.70;;
75234;SDS011;63817;51.228;-1.472;2023-06-14T03:56:20;8.30;;;3.58;;
75234;SDS011;63817;51.228;-1.472;2023-06-14T03:58:46;8.60;;;3.88;;
75234;SDS011;63817;51.228;-1.472;2023-06-14T04:01:12;13.75;;;3.90;;
75234;SDS011;63817;51.228;-1.472;2023-06-14T04:03:37;9.80;;;3.72;;
75234;SDS011;63817;51.228;-1.472;2023-06-14T04:06:03;10.52;;;4.03;;
75234;SDS011;63817;51.228;-1.472;2023-06-14T04:08:29;10.65;;;4.43;;
75234;SDS011;63817;51.228;-1.472;2023-06-14T04:10:55;10.35;;;4.07;;
75234;SDS011;63817;51.228;-1.472;2023-06-14T04:13:20;8.73;;;4.38;;
75234;SDS011;63817;51.228;-1.472;2023-06-14T04:15:45;9.73;;;3.90;;
75234;SDS011;63817;51.228;-1.472;2023-06-14T04:18:11;9.00;;;4.00;;
75234;SDS011;63817;51.228;-1.472;2023-06-14T04:20:38;9.00;;;3.67;;
75234;SDS011;63817;51.228;-1.472;2023-06-14T04:23:14;8.00;;;3.53;;
75234;SDS011;63817;51.228;-1.472;2023-06-14T04:25:42;12.48;;;4.10;;
75234;SDS011;63817;51.228;-1.472;2023-06-14T04:28:10;7.78;;;3.40;;
75234;SDS011;63817;51.228;-1.472;2023-06-14T04:30:36;12.00;;;4.65;;
75234;SDS011;63817;51.228;-1.472;2023-06-14T04:33:03;15.15;;;4.63;;
75234;SDS011;63817;51.228;-1.472;2023-06-14T04:35:30;10.77;;;3.97;;
75234;SDS011;63817;51.228;-1.472;2023-06-14T04:37:57;9.98;;;4.25;;
75234;SDS011;63817;51.228;-1.472;2023-06-14T04:40:23;10.90;;;4.25;;
75234;SDS011;63817;51.228;-1.472;2023-06-14T04:42:48;7.57;;;4.07;;
75234;SDS011;63817;51.228;-1.472;2023-06-14T04:45:16;9.50;;;3.63;;
75234;SDS011;63817;51.228;-1.472;2023-06-14T04:47:41;8.32;;;3.80;;
75234;SDS011;63817;51.228;-1.472;2023-06-14T04:50:08;13.20;;;4.38;;
75234;SDS011;63817;51.228;-1.472;2023-06-14T04:52:35;17.23;;;4.10;;
75234;SDS011;63817;51.228;-1.472;2023-06-14T04:55:00;13.27;;;4.45;;
75234;SDS011;63817;51.228;-1.472;2023-06-14T04:57:26;10.85;;;4.15;;
75234;SDS011;63817;51.228;-1.472;2023-06-14T04:59:52;10.27;;;3.95;;
75234;SDS011;63817;51.228;-1.472;2023-06-14T05:02:21;19.10;;;4.07;;
75234;SDS011;63817;51.228;-1.472;2023-06-14T05:04:47;13.00;;;4.70;;
75234;SDS011;63817;51.228;-1.472;2023-06-14T05:07:13;10.88;;;3.83;;
75234;SDS011;63817;51.228;-1.472;2023-06-14T05:09:39;10.57;;;3.78;;
75234;SDS011;63817;51.228;-1.472;2023-06-14T05:12:04;10.45;;;3.90;;
75234;SDS011;63817;51.228;-1.472;2023-06-14T05:14:34;12.10;;;4.90;;
75234;SDS011;63817;51.228;-1.472;2023-06-14T05:17:00;13.02;;;4.40;;
75234;SDS011;63817;51.228;-1.472;2023-06-14T05:19:25;10.55;;;4.20;;
75234;SDS011;63817;51.228;-1.472;2023-06-14T05:21:51;12.43;;;4.30;;
75234;SDS011;63817;51.228;-1.472;2023-06-14T05:24:18;17.42;;;4.63;;
75234;SDS011;63817;51.228;-1.472;2023-06-14T05:26:43;11.93;;;4.43;;
75234;SDS011;63817;51.228;-1.472;2023-06-14T05:29:09;16.30;;;4.85;;
75234;SDS011;63817;51.228;-1.472;2023-06-14T05:31:34;13.93;;;5.20;;
75234;SDS011;63817;51.228;-1.472;2023-06-14T05:34:00;16.80;;;4.78;;
75234;SDS011;63817;51.228;-1.472;2023-06-14T05:36:25;16.23;;;4.25;;
75234;SDS011;63817;51.228;-1.472;2023-06-14T05:38:52;13.35;;;4.75;;
75234;SDS011;63817;51.228;-1.472;2023-06-14T05:41:27;22.98;;;5.28;;
75234;SDS011;63817;51.228;-1.472;2023-06-14T05:43:56;9.80;;;4.47;;
75234;SDS011;63817;51.228;-1.472;2023-06-14T05:46:22;8.20;;;3.85;;
75234;SDS011;63817;51.228;-1.472;2023-06-14T05:48:50;7.85;;;3.75;;
75234;SDS011;63817;51.228;-1.472;2023-06-14T05:51:16;13.68;;;5.07;;
75234;SDS011;63817;51.228;-1.472;2023-06-14T05:53:44;11.38;;;4.00;;
75234;SDS011;63817;51.228;-1.472;2023-06-14T05:56:11;14.43;;;4.43;;
75234;SDS011;63817;51.228;-1.472;2023-06-14T05:58:36;9.00;;;3.97;;
75234;SDS011;63817;51.228;-1.472;2023-06-14T06:01:02;9.23;;;3.95;;
75234;SDS011;63817;51.228;-1.472;2023-06-14T06:03:27;10.68;;;3.90;;
75234;SDS011;63817;51.228;-1.472;2023-06-14T06:05:54;12.07;;;4.35;;
75234;SDS011;63817;51.228;-1.472;2023-06-14T06:08:20;13.23;;;4.28;;
75234;SDS011;63817;51.228;-1.472;2023-06-14T06:10:45;9.23;;;3.85;;
75234;SDS011;63817;51.228;-1.472;2023-06-14T06:13:11;13.88;;;3.75;;
75234;SDS011;63817;51.228;-1.472;2023-06-14T06:15:37;13.30;;;4.80;;
75234;SDS011;63817;51.228;-1.472;2023-06-14T06:18:02;10.10;;;3.60;;
75234;SDS011;63817;51.228;-1.472;2023-06-14T06:20:28;10.13;;;4.25;;
75234;SDS011;63817;51.228;-1.472;2023-06-14T06:22:56;9.02;;;3.28;;
75234;SDS011;63817;51.228;-1.472;2023-06-14T06:25:23;13.13;;;4.43;;
75234;SDS011;63817;51.228;-1.472;2023-06-14T06:27:50;10.93;;;4.20;;
75234;SDS011;63817;51.228;-1.472;2023-06-14T06:30:16;12.75;;;4.15;;
75234;SDS011;63817;51.228;-1.472;2023-06-14T06:32:42;8.48;;;3.88;;
75234;SDS011;63817;51.228;-1.472;2023-06-14T06:35:07;12.10;;;4.03;;
75234;SDS011;63817;51.228;-1.472;2023-06-14T06:37:35;13.52;;;3.95;;
75234;SDS011;63817;51.228;-1.472;2023-06-14T06:40:01;11.27;;;3.58;;
75234;SDS011;63817;51.228;-1.472;2023-06-14T06:42:27;11.57;;;3.47;;
75234;SDS011;63817;51.228;-1.472;2023-06-14T06:44:53;8.45;;;4.35;;
75234;SDS011;63817;51.228;-1.472;2023-06-14T06:47:18;9.00;;;3.58;;
75234;SDS011;63817;51.228;-1.472;2023-06-14T06:49:43;8.65;;;3.63;;
75234;SDS011;63817;51.228;-1.472;2023-06-14T06:52:09;10.82;;;4.10;;
75234;SDS011;63817;51.228;-1.472;2023-06-14T06:54:34;11.38;;;3.35;;
75234;SDS011;63817;51.228;-1.472;2023-06-14T06:57:00;11.38;;;4.10;;
75234;SDS011;63817;51.228;-1.472;2023-06-14T06:59:26;12.65;;;3.53;;
75234;SDS011;63817;51.228;-1.472;2023-06-14T07:01:52;10.70;;;3.40;;
75234;SDS011;63817;51.228;-1.472;2023-06-14T07:04:18;9.82;;;3.28;;
75234;SDS011;63817;51.228;-1.472;2023-06-14T07:06:43;13.13;;;3.63;;
75234;SDS011;63817;51.228;-1.472;2023-06-14T07:09:09;8.43;;;3.80;;
75234;SDS011;63817;51.228;-1.472;2023-06-14T07:11:37;9.90;;;3.50;;
75234;SDS011;63817;51.228;-1.472;2023-06-14T07:14:05;9.40;;;3.88;;
75234;SDS011;63817;51.228;-1.472;2023-06-14T07:16:31;11.75;;;3.40;;
75234;SDS011;63817;51.228;-1.472;2023-06-14T07:18:57;7.38;;;3.42;;
75234;SDS011;63817;51.228;-1.472;2023-06-14T07:21:22;8.25;;;3.35;;
75234;SDS011;63817;51.228;-1.472;2023-06-14T07:23:47;9.30;;;4.20;;
75234;SDS011;63817;51.228;-1.472;2023-06-14T07:26:13;9.57;;;3.40;;
75234;SDS011;63817;51.228;-1.472;2023-06-14T07:28:38;11.60;;;3.78;;
75234;SDS011;63817;51.228;-1.472;2023-06-14T07:31:04;9.88;;;3.30;;
75234;SDS011;63817;51.228;-1.472;2023-06-14T07:33:29;7.30;;;3.45;;
75234;SDS011;63817;51.228;-1.472;2023-06-14T07:35:54;9.38;;;3.28;;
75234;SDS011;63817;51.228;-1.472;2023-06-14T07:38:20;11.07;;;3.58;;
75234;SDS011;63817;51.228;-1.472;2023-06-14T07:40:45;7.75;;;3.40;;
75234;SDS011;63817;51.228;-1.472;2023-06-14T07:43:11;10.57;;;3.40;;
75234;SDS011;63817;51.228;-1.472;2023-06-14T07:45:37;11.02;;;3.67;;
75234;SDS011;63817;51.228;-1.472;2023-06-14T07:48:02;12.48;;;4.03;;
75234;SDS011;63817;51.228;-1.472;2023-06-14T07:50:28;7.18;;;3.50;;
75234;SDS011;63817;51.228;-1.472;2023-06-14T07:52:54;10.52;;;3.70;;
75234;SDS011;63817;51.228;-1.472;2023-06-14T07:55:19;13.32;;;3.75;;
75234;SDS011;63817;51.228;-1.472;2023-06-14T07:57:45;10.27;;;4.00;;
75234;SDS011;63817;51.228;-1.472;2023-06-14T08:00:11;7.97;;;3.83;;
75234;SDS011;63817;51.228;-1.472;2023-06-14T08:02:40;8.45;;;3.45;;
75234;SDS011;63817;51.228;-1.472;2023-06-14T08:05:11;8.80;;;3.53;;
75234;SDS011;63817;51.228;-1.472;2023-06-14T08:07:37;8.80;;;3.58;;
75234;SDS011;63817;51.228;-1.472;2023-06-14T08:10:06;9.48;;;3.85;;
75234;SDS011;63817;51.228;-1.472;2023-06-14T08:12:32;6.80;;;3.42;;
75234;SDS011;63817;51.228;-1.472;2023-06-14T08:14:58;9.55;;;3.72;;
75234;SDS011;63817;51.228;-1.472;2023-06-14T08:17:24;9.65;;;3.47;;
75234;SDS011;63817;51.228;-1.472;2023-06-14T08:19:50;8.63;;;3.78;;
75234;SDS011;63817;51.228;-1.472;2023-06-14T08:22:15;7.40;;;3.50;;
75234;SDS011;63817;51.228;-1.472;2023-06-14T08:24:43;5.75;;;3.33;;
75234;SDS011;63817;51.228;-1.472;2023-06-14T08:27:09;10.60;;;3.92;;
75234;SDS011;63817;51.228;-1.472;2023-06-14T08:29:35;7.75;;;3.67;;
75234;SDS011;63817;51.228;-1.472;2023-06-14T08:32:00;13.48;;;4.03;;
75234;SDS011;63817;51.228;-1.472;2023-06-14T08:34:26;13.25;;;4.07;;
75234;SDS011;63817;51.228;-1.472;2023-06-14T08:36:52;10.52;;;4.20;;
75234;SDS011;63817;51.228;-1.472;2023-06-14T08:39:17;7.45;;;3.58;;
75234;SDS011;63817;51.228;-1.472;2023-06-14T08:41:45;9.25;;;4.18;;
75234;SDS011;63817;51.228;-1.472;2023-06-14T08:44:11;14.45;;;4.15;;
75234;SDS011;63817;51.228;-1.472;2023-06-14T08:46:37;9.85;;;3.40;;
75234;SDS011;63817;51.228;-1.472;2023-06-14T08:49:02;12.63;;;3.85;;
75234;SDS011;63817;51.228;-1.472;2023-06-14T08:51:31;12.30;;;4.68;;
75234;SDS011;63817;51.228;-1.472;2023-06-14T08:54:01;10.60;;;3.40;;
75234;SDS011;63817;51.228;-1.472;2023-06-14T08:56:28;12.30;;;3.80;;
75234;SDS011;63817;51.228;-1.472;2023-06-14T08:58:55;9.90;;;4.18;;
75234;SDS011;63817;51.228;-1.472;2023-06-14T09:01:28;11.23;;;4.03;;
75234;SDS011;63817;51.228;-1.472;2023-06-14T09:03:53;11.98;;;4.32;;
75234;SDS011;63817;51.228;-1.472;2023-06-14T09:06:22;7.40;;;4.18;;
75234;SDS011;63817;51.228;-1.472;2023-06-14T09:08:49;19.67;;;4.32;;
75234;SDS011;63817;51.228;-1.472;2023-06-14T09:11:16;9.27;;;4.05;;
75234;SDS011;63817;51.228;-1.472;2023-06-14T09:13:44;9.20;;;4.45;;
75234;SDS011;63817;51.228;-1.472;2023-06-14T09:16:12;9.60;;;4.03;;
75234;SDS011;63817;51.228;-1.472;2023-06-14T09:18:39;9.82;;;4.10;;
75234;SDS011;63817;51.228;-1.472;2023-06-14T09:21:06;12.82;;;4.82;;
75234;SDS011;63817;51.228;-1.472;2023-06-14T09:23:39;9.65;;;3.92;;
75234;SDS011;63817;51.228;-1.472;2023-06-14T09:26:08;12.00;;;4.15;;
75234;SDS011;63817;51.228;-1.472;2023-06-14T09:28:35;11.40;;;3.83;;
75234;SDS011;63817;51.228;-1.472;2023-06-14T09:31:01;11.70;;;4.57;;
75234;SDS011;63817;51.228;-1.472;2023-06-14T09:33:26;11.25;;;4.80;;
75234;SDS011;63817;51.228;-1.472;2023-06-14T09:35:53;10.85;;;3.72;;
75234;SDS011;63817;51.228;-1.472;2023-06-14T09:38:19;8.73;;;3.88;;
75234;SDS011;63817;51.228;-1.472;2023-06-14T09:40:45;13.20;;;5.78;;
75234;SDS011;63817;51.228;-1.472;2023-06-14T09:43:10;15.60;;;5.13;;
75234;SDS011;63817;51.228;-1.472;2023-06-14T09:45:36;17.88;;;5.20;;
75234;SDS011;63817;51.228;-1.472;2023-06-14T09:48:05;24.60;;;4.75;;
75234;SDS011;63817;51.228;-1.472;2023-06-14T09:50:32;12.23;;;4.90;;
75234;SDS011;63817;51.228;-1.472;2023-06-14T09:53:01;11.10;;;4.28;;
75234;SDS011;63817;51.228;-1.472;2023-06-14T09:55:28;11.95;;;4.22;;
75234;SDS011;63817;51.228;-1.472;2023-06-14T09:57:56;9.55;;;4.15;;
75234;SDS011;63817;51.228;-1.472;2023-06-14T10:00:22;11.90;;;4.70;;
75234;SDS011;63817;51.228;-1.472;2023-06-14T10:02:49;8.73;;;4.22;;
75234;SDS011;63817;51.228;-1.472;2023-06-14T10:05:18;12.13;;;4.88;;
75234;SDS011;63817;51.228;-1.472;2023-06-14T10:07:48;12.05;;;4.82;;
75234;SDS011;63817;51.228;-1.472;2023-06-14T10:10:16;11.80;;;4.43;;
75234;SDS011;63817;51.228;-1.472;2023-06-14T10:12:42;9.35;;;4.07;;
75234;SDS011;63817;51.228;-1.472;2023-06-14T10:15:11;9.88;;;4.43;;
75234;SDS011;63817;51.228;-1.472;2023-06-14T10:23:35;12.52;;;4.72;;
75234;SDS011;63817;51.228;-1.472;2023-06-14T10:26:03;10.93;;;4.50;;
75234;SDS011;63817;51.228;-1.472;2023-06-14T10:28:28;9.27;;;5.07;;
75234;SDS011;63817;51.228;-1.472;2023-06-14T10:33:30;13.68;;;5.20;;
75234;SDS011;63817;51.228;-1.472;2023-06-14T10:38:56;11.55;;;5.40;;
75234;SDS011;63817;51.228;-1.472;2023-06-14T10:41:37;12.63;;;4.82;;
75234;SDS011;63817;51.228;-1.472;2023-06-14T10:46:38;9.73;;;4.32;;
75234;SDS011;63817;51.228;-1.472;2023-06-14T10:49:05;11.48;;;4.30;;
75234;SDS011;63817;51.228;-1.472;2023-06-14T10:51:38;14.02;;;5.20;;
75234;SDS011;63817;51.228;-1.472;2023-06-14T10:54:14;16.48;;;4.75;;
75234;SDS011;63817;51.228;-1.472;2023-06-14T10:56:51;11.55;;;4.45;;
75234;SDS011;63817;51.228;-1.472;2023-06-14T10:59:18;7.85;;;4.18;;
75234;SDS011;63817;51.228;-1.472;2023-06-14T11:01:58;12.05;;;4.90;;
75234;SDS011;63817;51.228;-1.472;2023-06-14T11:04:49;12.25;;;4.93;;
75234;SDS011;63817;51.228;-1.472;2023-06-14T11:10:24;13.10;;;5.43;;
75234;SDS011;63817;51.228;-1.472;2023-06-14T11:12:56;9.93;;;4.85;;
75234;SDS011;63817;51.228;-1.472;2023-06-14T11:15:28;10.52;;;4.80;;
75234;SDS011;63817;51.228;-1.472;2023-06-14T11:17:55;10.68;;;4.60;;
75234;SDS011;63817;51.228;-1.472;2023-06-14T11:20:24;9.25;;;4.80;;
75234;SDS011;63817;51.228;-1.472;2023-06-14T11:22:51;8.20;;;4.40;;
75234;SDS011;63817;51.228;-1.472;2023-06-14T11:25:17;10.75;;;4.82;;
75234;SDS011;63817;51.228;-1.472;2023-06-14T11:27:43;13.27;;;4.72;;
75234;SDS011;63817;51.228;-1.472;2023-06-14T11:30:09;8.10;;;4.80;;
75234;SDS011;63817;51.228;-1.472;2023-06-14T11:32:36;10.75;;;4.60;;
75234;SDS011;63817;51.228;-1.472;2023-06-14T11:35:02;13.18;;;5.07;;
75234;SDS011;63817;51.228;-1.472;2023-06-14T11:37:30;13.55;;;4.57;;
75234;SDS011;63817;51.228;-1.472;2023-06-14T11:39:56;19.15;;;5.32;;
75234;SDS011;63817;51.228;-1.472;2023-06-14T11:42:22;14.07;;;4.68;;
75234;SDS011;63817;51.228;-1.472;2023-06-14T11:44:49;12.43;;;4.60;;
75234;SDS011;63817;51.228;-1.472;2023-06-14T11:47:15;14.60;;;5.30;;
75234;SDS011;63817;51.228;-1.472;2023-06-14T11:49:40;14.38;;;4.93;;
75234;SDS011;63817;51.228;-1.472;2023-06-14T11:52:07;9.77;;;4.68;;
75234;SDS011;63817;51.228;-1.472;2023-06-14T11:54:32;9.30;;;5.03;;
75234;SDS011;63817;51.228;-1.472;2023-06-14T11:56:58;10.32;;;4.88;;
75234;SDS011;63817;51.228;-1.472;2023-06-14T11:59:24;8.85;;;4.65;;
75234;SDS011;63817;51.228;-1.472;2023-06-14T12:01:50;12.00;;;5.50;;
75234;SDS011;63817;51.228;-1.472;2023-06-14T12:04:24;10.50;;;4.85;;
75234;SDS011;63817;51.228;-1.472;2023-06-14T12:06:50;10.60;;;5.20;;
75234;SDS011;63817;51.228;-1.472;2023-06-14T12:09:18;10.23;;;5.10;;
75234;SDS011;63817;51.228;-1.472;2023-06-14T12:11:44;9.20;;;4.72;;
75234;SDS011;63817;51.228;-1.472;2023-06-14T12:14:10;10.27;;;5.15;;
75234;SDS011;63817;51.228;-1.472;2023-06-14T12:16:37;12.85;;;5.53;;
75234;SDS011;63817;51.228;-1.472;2023-06-14T12:19:13;8.25;;;5.10;;
75234;SDS011;63817;51.228;-1.472;2023-06-14T12:21:39;10.80;;;5.65;;
75234;SDS011;63817;51.228;-1.472;2023-06-14T12:24:05;9.63;;;5.10;;
75234;SDS011;63817;51.228;-1.472;2023-06-14T12:26:32;12.07;;;5.57;;
75234;SDS011;63817;51.228;-1.472;2023-06-14T12:28:58;7.32;;;4.95;;
75234;SDS011;63817;51.228;-1.472;2023-06-14T12:31:23;11.68;;;5.50;;
75234;SDS011;63817;51.228;-1.472;2023-06-14T12:33:49;10.30;;;5.10;;
75234;SDS011;63817;51.228;-1.472;2023-06-14T12:36:15;23.40;;;6.38;;
75234;SDS011;63817;51.228;-1.472;2023-06-14T12:38:41;10.02;;;5.22;;
75234;SDS011;63817;51.228;-1.472;2023-06-14T12:41:07;15.77;;;6.43;;
75234;SDS011;63817;51.228;-1.472;2023-06-14T12:43:32;10.18;;;5.38;;
75234;SDS011;63817;51.228;-1.472;2023-06-14T12:45:58;14.55;;;5.82;;
75234;SDS011;63817;51.228;-1.472;2023-06-14T12:48:24;8.45;;;5.40;;
75234;SDS011;63817;51.228;-1.472;2023-06-14T12:50:49;9.98;;;5.07;;
75234;SDS011;63817;51.228;-1.472;2023-06-14T12:53:15;9.25;;;5.28;;
75234;SDS011;63817;51.228;-1.472;2023-06-14T12:55:41;9.75;;;5.50;;
75234;SDS011;63817;51.228;-1.472;2023-06-14T12:58:06;9.65;;;5.43;;
75234;SDS011;63817;51.228;-1.472;2023-06-14T13:00:32;9.07;;;5.15;;
75234;SDS011;63817;51.228;-1.472;2023-06-14T13:02:57;12.40;;;6.05;;
75234;SDS011;63817;51.228;-1.472;2023-06-14T13:05:23;10.20;;;5.40;;
75234;SDS011;63817;51.228;-1.472;2023-06-14T13:07:49;8.68;;;5.78;;
75234;SDS011;63817;51.228;-1.472;2023-06-14T13:10:14;9.55;;;4.93;;
75234;SDS011;63817;51.228;-1.472;2023-06-14T13:12:40;16.33;;;6.55;;
75234;SDS011;63817;51.228;-1.472;2023-06-14T13:15:05;9.70;;;5.65;;
75234;SDS011;63817;51.228;-1.472;2023-06-14T13:17:32;10.93;;;6.03;;
75234;SDS011;63817;51.228;-1.472;2023-06-14T13:20:03;9.70;;;6.45;;
75234;SDS011;63817;51.228;-1.472;2023-06-14T13:22:30;7.35;;;5.43;;
75234;SDS011;63817;51.228;-1.472;2023-06-14T13:24:55;14.45;;;6.45;;
75234;SDS011;63817;51.228;-1.472;2023-06-14T13:27:20;8.15;;;5.82;;
75234;SDS011;63817;51.228;-1.472;2023-06-14T13:29:46;11.10;;;5.90;;
75234;SDS011;63817;51.228;-1.472;2023-06-14T13:32:11;15.75;;;5.85;;
75234;SDS011;63817;51.228;-1.472;2023-06-14T13:34:37;7.43;;;5.80;;
75234;SDS011;63817;51.228;-1.472;2023-06-14T13:37:02;11.30;;;5.60;;
75234;SDS011;63817;51.228;-1.472;2023-06-14T13:39:27;13.80;;;5.22;;
75234;SDS011;63817;51.228;-1.472;2023-06-14T13:41:53;16.08;;;5.85;;
75234;SDS011;63817;51.228;-1.472;2023-06-14T13:44:18;10.13;;;5.82;;
75234;SDS011;63817;51.228;-1.472;2023-06-14T13:46:46;10.80;;;5.55;;
75234;SDS011;63817;51.228;-1.472;2023-06-14T13:49:11;10.50;;;5.55;;
75234;SDS011;63817;51.228;-1.472;2023-06-14T13:51:37;11.77;;;5.60;;
75234;SDS011;63817;51.228;-1.472;2023-06-14T13:54:03;10.90;;;5.88;;
75234;SDS011;63817;51.228;-1.472;2023-06-14T13:56:28;9.82;;;5.90;;
75234;SDS011;63817;51.228;-1.472;2023-06-14T13:58:55;12.52;;;6.15;;
75234;SDS011;63817;51.228;-1.472;2023-06-14T14:01:20;11.40;;;6.32;;
75234;SDS011;63817;51.228;-1.472;2023-06-14T14:03:49;9.02;;;5.82;;
75234;SDS011;63817;51.228;-1.472;2023-06-14T14:06:14;11.93;;;5.75;;
75234;SDS011;63817;51.228;-1.472;2023-06-14T14:08:40;6.55;;;5.80;;
75234;SDS011;63817;51.228;-1.472;2023-06-14T14:11:06;10.88;;;5.95;;
75234;SDS011;63817;51.228;-1.472;2023-06-14T14:13:32;15.55;;;6.00;;
75234;SDS011;63817;51.228;-1.472;2023-06-14T14:15:58;12.40;;;6.18;;
75234;SDS011;63817;51.228;-1.472;2023-06-14T14:18:24;15.27;;;5.80;;
75234;SDS011;63817;51.228;-1.472;2023-06-14T14:20:50;14.38;;;6.90;;
75234;SDS011;63817;51.228;-1.472;2023-06-14T14:23:15;9.93;;;6.40;;
75234;SDS011;63817;51.228;-1.472;2023-06-14T14:25:41;11.55;;;5.85;;
75234;SDS011;63817;51.228;-1.472;2023-06-14T14:28:06;10.60;;;6.00;;
75234;SDS011;63817;51.228;-1.472;2023-06-14T14:30:32;14.35;;;6.35;;
75234;SDS011;63817;51.228;-1.472;2023-06-14T14:32:57;12.25;;;6.38;;
75234;SDS011;63817;51.228;-1.472;2023-06-14T14:35:23;10.82;;;6.35;;
75234;SDS011;63817;51.228;-1.472;2023-06-14T14:37:51;11.90;;;6.22;;
75234;SDS011;63817;51.228;-1.472;2023-06-14T14:40:16;11.65;;;5.95;;
75234;SDS011;63817;51.228;-1.472;2023-06-14T14:42:42;10.57;;;6.47;;